Time;durP1;ratioP1;P1;durP2;ratioP2;P2;SDS_P1;SDS_P2;PMS_P1;PMS_P2;Temp;Humidity;BMP_temperature;BMP_pressure;BME280_temperature;BME280_humidity;BME280_pressure;Samples;Min_cycle;Max_cycle;Signal;HPM_P1;HPM_P2
2023/08/27 00:01:22;;;;;;;4.57;3.53;;;;;;;15.69;89.43;100901.59;5112626;28;20027;-63
2023/08/27 00:03:47;;;;;;;5.18;4.40;;;;;;;15.58;92.74;100896.25;5095416;27;20121;-63
2023/08/27 00:06:12;;;;;;;5.53;4.13;;;;;;;15.70;93.37;100891.72;5111344;27;20023;-63
2023/08/27 00:08:40;;;;;;;5.97;3.63;;;;;;;15.58;94.56;100875.63;5113937;28;20027;-62
2023/08/27 00:11:06;;;;;;;5.43;4.07;;;;;;;15.63;97.30;100861.84;5094001;28;20126;-62
2023/08/27 00:13:31;;;;;;;4.32;3.92;;;;;;;15.53;96.38;100853.75;5097279;27;20102;-62
2023/08/27 00:15:57;;;;;;;3.83;3.25;;;;;;;15.66;94.21;100851.72;5112293;28;20064;-63
2023/08/27 00:18:22;;;;;;;4.32;3.42;;;;;;;15.63;95.22;100843.09;5086425;28;20023;-63
2023/08/27 00:20:48;;;;;;;4.90;3.42;;;;;;;15.59;95.69;100842.50;5093805;28;20474;-62
2023/08/27 00:23:15;;;;;;;4.25;3.88;;;;;;;15.60;97.65;100825.44;5090656;28;20043;-63
2023/08/27 00:25:43;;;;;;;5.93;3.63;;;;;;;15.64;97.38;100820.66;5092615;28;20031;-63
2023/08/27 00:28:10;;;;;;;5.95;3.88;;;;;;;15.60;98.98;100811.19;5094911;28;20107;-63
2023/08/27 00:30:36;;;;;;;3.95;3.60;;;;;;;15.61;96.89;100796.78;5113285;27;20034;-63
2023/08/27 00:33:01;;;;;;;3.35;3.05;;;;;;;15.53;98.17;100813.53;5129668;27;20019;-62
2023/08/27 00:35:29;;;;;;;3.83;3.53;;;;;;;15.63;98.04;100805.56;5130556;27;20466;-63
2023/08/27 00:37:55;;;;;;;4.47;2.85;;;;;;;15.57;98.00;100798.03;5098367;28;20494;-63
2023/08/27 00:40:20;;;;;;;6.55;3.30;;;;;;;15.46;99.54;100804.28;5103735;28;20133;-63
2023/08/27 00:42:48;;;;;;;5.07;3.60;;;;;;;15.48;98.74;100812.22;5107925;27;20036;-62
2023/08/27 00:45:13;;;;;;;4.85;3.53;;;;;;;15.47;98.46;100792.63;5104378;27;20020;-62
2023/08/27 00:47:39;;;;;;;3.97;3.45;;;;;;;15.49;99.90;100774.53;5094848;28;20023;-63
2023/08/27 00:50:08;;;;;;;3.30;3.00;;;;;;;15.46;99.25;100796.25;5075186;28;20031;-63
2023/08/27 00:52:34;;;;;;;3.78;3.35;;;;;;;15.52;97.90;100794.88;5104640;28;20492;-62
2023/08/27 00:55:03;;;;;;;3.78;3.47;;;;;;;15.41;98.93;100775.22;5124308;27;20470;-63
2023/08/27 00:57:29;;;;;;;4.88;3.30;;;;;;;15.38;98.22;100788.88;5122087;27;20039;-63
2023/08/27 00:59:56;;;;;;;3.75;3.22;;;;;;;15.33;99.12;100788.41;5111714;28;20076;-63
2023/08/27 01:02:21;;;;;;;5.30;3.45;;;;;;;15.34;100.00;100789.25;5083340;28;20544;-63
2023/08/27 01:04:46;;;;;;;5.18;3.47;;;;;;;15.38;98.46;100782.63;5090702;28;20044;-63
2023/08/27 01:07:20;;;;;;;3.40;3.10;;;;;;;15.27;100.00;100780.88;5092446;28;20028;-63
2023/08/27 01:10:13;;;;;;;3.35;3.05;;;;;;;15.46;100.00;100788.22;5096021;28;20028;-62
2023/08/27 01:13:01;;;;;;;4.65;3.70;;;;;;;15.33;100.00;100782.19;5112550;28;20066;-63
2023/08/27 01:15:27;;;;;;;4.13;3.22;;;;;;;15.29;100.00;100778.06;5107874;27;20028;-63
2023/08/27 01:17:54;;;;;;;6.20;3.70;;;;;;;15.10;100.00;100773.41;5080780;28;20065;-63
2023/08/27 01:20:20;;;;;;;3.78;3.47;;;;;;;15.17;100.00;100777.25;5110652;28;20111;-63
2023/08/27 01:22:45;;;;;;;3.83;3.20;;;;;;;15.12;100.00;100777.66;5111422;27;20042;-63
2023/08/27 01:25:12;;;;;;;3.50;3.22;;;;;;;15.21;100.00;100770.69;5093283;28;20075;-63
2023/08/27 01:27:57;;;;;;;3.85;3.30;;;;;;;15.05;99.77;100781.81;5112056;28;20028;-63
2023/08/27 01:30:29;;;;;;;5.88;3.10;;;;;;;15.10;98.77;100768.88;5093796;28;20024;-63
2023/08/27 01:33:05;;;;;;;3.70;3.40;;;;;;;15.09;100.00;100780.59;5093785;28;20458;-63
2023/08/27 01:35:32;;;;;;;3.63;3.10;;;;;;;15.08;100.00;100767.31;5130718;27;20034;-62
2023/08/27 01:37:58;;;;;;;3.85;3.05;;;;;;;14.94;100.00;100763.09;5111698;27;20153;-63
2023/08/27 01:40:26;;;;;;;3.78;3.28;;;;;;;14.94;100.00;100757.72;5108549;28;20434;-63
2023/08/27 01:42:52;;;;;;;3.85;3.33;;;;;;;14.89;100.00;100768.84;5107679;28;20016;-63
2023/08/27 01:45:18;;;;;;;3.40;3.10;;;;;;;14.89;100.00;100768.00;5109102;28;20081;-63
2023/08/27 01:47:44;;;;;;;3.47;3.10;;;;;;;14.89;100.00;100758.13;5102465;28;20103;-62
2023/08/27 01:50:09;;;;;;;4.13;3.30;;;;;;;15.07;100.00;100762.94;5108077;28;20046;-63
2023/08/27 01:52:35;;;;;;;3.28;2.97;;;;;;;14.97;100.00;100766.38;5110927;28;20027;-63
2023/08/27 01:55:03;;;;;;;3.63;3.30;;;;;;;15.05;100.00;100762.22;5116654;27;20434;-63
2023/08/27 01:57:28;;;;;;;3.05;2.85;;;;;;;14.84;100.00;100736.22;5096407;28;20043;-63
2023/08/27 01:59:54;;;;;;;4.18;3.22;;;;;;;15.11;100.00;100765.22;5095668;28;20028;-63
2023/08/27 02:02:19;;;;;;;3.65;3.05;;;;;;;15.10;100.00;100758.19;5108789;28;20027;-63
2023/08/27 02:04:46;;;;;;;3.58;3.28;;;;;;;15.14;100.00;100756.09;5113167;27;20499;-63
2023/08/27 02:07:14;;;;;;;3.95;3.17;;;;;;;15.21;100.00;100752.78;5097875;28;20123;-63
2023/08/27 02:09:39;;;;;;;3.97;3.45;;;;;;;14.98;99.13;100752.00;5097761;28;20023;-63
2023/08/27 02:12:05;;;;;;;3.60;3.30;;;;;;;14.97;99.19;100758.34;5116387;27;20107;-63
2023/08/27 02:14:30;;;;;;;3.58;3.25;;;;;;;14.94;100.00;100766.66;5097498;28;20065;-63
2023/08/27 02:17:00;;;;;;;3.58;3.28;;;;;;;14.99;100.00;100758.22;5116817;27;20047;-63
2023/08/27 02:19:28;;;;;;;3.63;3.33;;;;;;;14.91;100.00;100769.59;5115422;28;20028;-63
2023/08/27 02:21:57;;;;;;;4.22;2.85;;;;;;;14.85;99.79;100770.06;5114826;28;20012;-63
2023/08/27 02:24:22;;;;;;;4.40;4.00;;;;;;;14.77;99.59;100769.88;5111762;28;20390;-62
2023/08/27 02:26:50;;;;;;;4.05;3.67;;;;;;;14.79;99.81;100773.25;5077073;28;20028;-63
2023/08/27 02:29:15;;;;;;;3.95;3.58;;;;;;;14.80;99.31;100760.72;5102023;28;20016;-63
2023/08/27 02:31:41;;;;;;;3.78;3.47;;;;;;;14.76;100.00;100762.78;5114654;28;20046;-62
2023/08/27 02:34:12;;;;;;;6.38;3.88;;;;;;;14.62;99.75;100757.69;5115230;28;20027;-62
2023/08/27 02:36:37;;;;;;;4.18;3.53;;;;;;;14.62;100.00;100768.41;5098576;28;20027;-62
2023/08/27 02:39:02;;;;;;;4.25;3.85;;;;;;;14.66;100.00;100773.41;5096796;28;20507;-63
2023/08/27 02:41:30;;;;;;;4.00;3.60;;;;;;;14.60;100.00;100751.66;5097172;28;20028;-63
2023/08/27 02:43:58;;;;;;;4.10;3.70;;;;;;;14.70;100.00;100758.78;5115165;28;20028;-63
2023/08/27 02:46:24;;;;;;;4.35;4.00;;;;;;;14.74;100.00;100764.75;5133249;27;20470;-63
2023/08/27 02:48:49;;;;;;;4.97;4.15;;;;;;;14.71;100.00;100767.69;5117285;27;20019;-63
2023/08/27 02:51:15;;;;;;;5.38;4.25;;;;;;;14.74;100.00;100759.41;5135385;27;20019;-63
2023/08/27 02:53:40;;;;;;;5.00;4.45;;;;;;;14.75;100.00;100769.13;5135565;27;20466;-63
2023/08/27 02:56:07;;;;;;;4.85;4.45;;;;;;;14.74;100.00;100756.72;5115389;27;20042;-63
2023/08/27 02:58:33;;;;;;;4.75;4.28;;;;;;;14.75;100.00;100763.78;5113086;27;20028;-63
2023/08/27 03:00:58;;;;;;;5.95;4.60;;;;;;;14.74;100.00;100762.94;5104123;28;20066;-63
2023/08/27 03:03:23;;;;;;;4.80;4.38;;;;;;;14.72;100.00;100767.53;5106020;28;20479;-63
2023/08/27 03:05:49;;;;;;;6.13;4.53;;;;;;;14.91;100.00;100766.91;5107259;27;20164;-62
2023/08/27 03:08:16;;;;;;;6.38;4.38;;;;;;;14.80;100.00;100764.25;5094512;28;20107;-62
2023/08/27 03:10:42;;;;;;;6.95;4.68;;;;;;;14.86;100.00;100758.38;5109641;27;20407;-63
2023/08/27 03:13:08;;;;;;;7.53;4.35;;;;;;;14.97;100.00;100760.16;5094809;28;20028;-63
2023/08/27 03:15:35;;;;;;;5.28;4.00;;;;;;;14.93;100.00;100766.75;5122712;27;20019;-62
2023/08/27 03:18:03;;;;;;;5.15;4.65;;;;;;;14.88;100.00;100779.66;5108990;27;20035;-62
2023/08/27 03:20:29;;;;;;;5.38;4.57;;;;;;;14.92;100.00;100768.59;5113347;28;20410;-62
2023/08/27 03:22:55;;;;;;;5.70;4.85;;;;;;;14.87;100.00;100770.78;5113350;28;20541;-63
2023/08/27 03:25:20;;;;;;;7.43;4.25;;;;;;;14.81;100.00;100778.47;5114739;27;20145;-63
2023/08/27 03:27:48;;;;;;;5.50;4.35;;;;;;;14.86;100.00;100792.34;5095581;28;20103;-62
2023/08/27 03:30:13;;;;;;;4.57;4.22;;;;;;;14.99;100.00;100785.00;5094997;28;20032;-62
2023/08/27 03:32:39;;;;;;;5.75;4.70;;;;;;;14.96;100.00;100778.06;5095984;28;20031;-62
2023/08/27 03:35:05;;;;;;;7.72;5.32;;;;;;;14.90;100.00;100767.84;5107692;28;20059;-62
2023/08/27 03:37:30;;;;;;;5.22;4.70;;;;;;;14.91;100.00;100764.22;5105098;27;20177;-62
2023/08/27 03:39:56;;;;;;;8.07;4.88;;;;;;;14.91;100.00;100766.91;5098653;28;20081;-62
2023/08/27 03:42:21;;;;;;;6.53;4.68;;;;;;;14.77;100.00;100738.56;5075348;28;20035;-62
2023/08/27 03:44:46;;;;;;;6.90;4.90;;;;;;;14.96;100.00;100745.06;5109386;28;20148;-62
2023/08/27 03:47:12;;;;;;;4.95;4.35;;;;;;;14.85;100.00;100737.06;5105333;27;20027;-63
2023/08/27 03:49:37;;;;;;;5.75;4.57;;;;;;;14.77;100.00;100743.09;5111439;28;20047;-62
2023/08/27 03:52:03;;;;;;;5.30;3.90;;;;;;;14.83;100.00;100747.94;5113136;28;20047;-62
2023/08/27 03:54:30;;;;;;;5.50;4.22;;;;;;;14.81;100.00;100741.84;5112620;28;20023;-62
2023/08/27 03:56:56;;;;;;;5.50;4.18;;;;;;;14.75;100.00;100727.13;5105154;27;20088;-62
2023/08/27 03:59:21;;;;;;;4.70;4.30;;;;;;;14.81;100.00;100724.94;5104719;28;20021;-62
2023/08/27 04:01:47;;;;;;;7.75;4.78;;;;;;;14.88;100.00;100726.13;5094881;28;20482;-63
2023/08/27 04:04:12;;;;;;;5.20;4.70;;;;;;;14.87;100.00;100737.81;5095633;28;20416;-63
2023/08/27 04:06:38;;;;;;;5.78;4.30;;;;;;;14.80;100.00;100736.63;5101428;28;20096;-62
2023/08/27 04:09:04;;;;;;;5.07;4.20;;;;;;;14.77;100.00;100735.91;5112310;27;20073;-63
2023/08/27 04:11:30;;;;;;;5.00;4.28;;;;;;;14.79;100.00;100732.22;5112462;28;20387;-62
2023/08/27 04:13:56;;;;;;;4.88;4.45;;;;;;;14.89;100.00;100723.31;5085005;28;20024;-62
2023/08/27 04:16:23;;;;;;;4.80;4.00;;;;;;;14.87;100.00;100727.09;5090512;28;20024;-62
2023/08/27 04:18:49;;;;;;;4.50;4.10;;;;;;;14.85;100.00;100729.03;5103813;27;20031;-62
2023/08/27 04:21:14;;;;;;;6.07;4.50;;;;;;;14.82;100.00;100742.69;5111093;28;20539;-62
2023/08/27 04:23:42;;;;;;;5.65;4.50;;;;;;;14.79;100.00;100746.47;5093596;28;20031;-63
2023/08/27 04:26:08;;;;;;;7.47;4.82;;;;;;;14.75;100.00;100750.38;5110944;28;20493;-63
2023/08/27 04:28:33;;;;;;;5.35;3.90;;;;;;;14.63;100.00;100736.19;5110468;28;20016;-63
2023/08/27 04:30:58;;;;;;;6.05;4.65;;;;;;;14.71;100.00;100732.88;5103761;28;20031;-62
2023/08/27 04:33:24;;;;;;;5.70;4.50;;;;;;;14.77;100.00;100737.72;5112209;28;20027;-63
2023/08/27 04:35:52;;;;;;;6.90;3.90;;;;;;;14.62;100.00;100730.94;5112482;28;20102;-63
2023/08/27 04:38:18;;;;;;;5.97;4.53;;;;;;;14.75;100.00;100734.31;5095936;28;20501;-62
2023/08/27 04:40:43;;;;;;;4.85;4.45;;;;;;;14.66;100.00;100727.06;5094624;28;20019;-63
2023/08/27 04:43:09;;;;;;;4.53;4.10;;;;;;;14.74;100.00;100733.47;5113330;28;20047;-62
2023/08/27 04:45:34;;;;;;;5.82;4.28;;;;;;;14.74;100.00;100733.47;5113470;27;20023;-63
2023/08/27 04:48:00;;;;;;;5.35;4.63;;;;;;;14.66;100.00;100737.75;5125392;27;20062;-62
2023/08/27 04:50:25;;;;;;;5.78;4.18;;;;;;;14.68;100.00;100739.34;5132779;27;20043;-62
2023/08/27 04:52:51;;;;;;;6.63;4.47;;;;;;;14.80;100.00;100742.00;5114976;27;20023;-62
2023/08/27 04:55:16;;;;;;;5.63;4.32;;;;;;;14.66;100.00;100753.81;5133401;27;20027;-62
2023/08/27 04:57:42;;;;;;;7.70;4.63;;;;;;;14.69;100.00;100756.25;5131364;27;20034;-62
2023/08/27 05:00:16;;;;;;;5.20;4.38;;;;;;;14.58;100.00;100762.47;5133183;27;20026;-63
2023/08/27 05:02:42;;;;;;;5.38;4.57;;;;;;;14.60;100.00;100762.34;5113808;27;20362;-62
2023/08/27 05:05:10;;;;;;;6.70;4.50;;;;;;;14.51;100.00;100769.28;5098718;28;20059;-62
2023/08/27 05:07:36;;;;;;;5.82;4.10;;;;;;;14.50;100.00;100768.44;5110341;27;20055;-62
2023/08/27 05:10:01;;;;;;;5.57;4.95;;;;;;;14.55;100.00;100768.06;5098251;28;20098;-63
2023/08/27 05:12:27;;;;;;;5.63;4.60;;;;;;;14.50;100.00;100768.44;5107526;27;20410;-62
2023/08/27 05:14:52;;;;;;;5.07;4.57;;;;;;;14.56;100.00;100768.91;5109694;28;20034;-62
2023/08/27 05:17:20;;;;;;;7.32;4.90;;;;;;;14.49;100.00;100764.03;5107380;28;20024;-62
2023/08/27 05:19:45;;;;;;;4.72;4.32;;;;;;;14.49;100.00;100755.16;5095908;28;20034;-62
2023/08/27 05:22:10;;;;;;;6.53;4.93;;;;;;;14.56;100.00;100761.75;5109296;28;20389;-63
2023/08/27 05:24:36;;;;;;;7.72;4.57;;;;;;;14.57;100.00;100757.25;5091962;28;20448;-62
2023/08/27 05:27:04;;;;;;;5.15;4.65;;;;;;;14.63;100.00;100757.59;5110779;27;20035;-63
2023/08/27 05:29:29;;;;;;;5.25;4.38;;;;;;;14.57;100.00;100760.78;5108846;28;20030;-62
2023/08/27 05:31:55;;;;;;;5.38;4.28;;;;;;;14.58;100.00;100758.94;5092622;28;20035;-63
2023/08/27 05:34:20;;;;;;;5.63;4.57;;;;;;;14.51;100.00;100756.78;5105479;28;20035;-63
2023/08/27 05:36:46;;;;;;;7.07;5.30;;;;;;;14.52;100.00;100741.56;5102436;28;20050;-63
2023/08/27 05:39:13;;;;;;;6.88;4.53;;;;;;;14.53;100.00;100753.97;5108745;28;20055;-62
2023/08/27 05:41:39;;;;;;;6.55;5.35;;;;;;;14.52;100.00;100754.94;5111953;28;20477;-62
2023/08/27 05:44:07;;;;;;;6.95;5.28;;;;;;;14.55;100.00;100760.03;5107127;28;20090;-63
2023/08/27 05:46:33;;;;;;;8.95;5.55;;;;;;;14.54;100.00;100769.06;5083264;28;20035;-62
2023/08/27 05:49:00;;;;;;;6.88;5.28;;;;;;;14.63;100.00;100770.13;5110348;28;20108;-62
2023/08/27 05:51:25;;;;;;;7.03;5.70;;;;;;;14.70;100.00;100760.63;5111620;28;20020;-62
2023/08/27 05:53:53;;;;;;;8.82;5.30;;;;;;;14.58;100.00;100762.47;5092534;28;20554;-63
2023/08/27 05:56:19;;;;;;;5.57;5.00;;;;;;;14.61;100.00;100764.03;5111430;28;20035;-63
2023/08/27 05:58:46;;;;;;;5.30;4.80;;;;;;;14.61;100.00;100756.00;5092233;28;20382;-63
2023/08/27 06:01:12;;;;;;;5.93;5.28;;;;;;;14.54;100.00;100740.47;5110065;28;20015;-63
2023/08/27 06:03:37;;;;;;;6.78;5.22;;;;;;;14.56;100.00;100750.19;5105717;28;20065;-62
2023/08/27 06:06:03;;;;;;;5.68;5.03;;;;;;;14.59;100.00;100748.13;5110936;28;20048;-63
2023/08/27 06:08:28;;;;;;;7.82;5.38;;;;;;;14.64;100.00;100753.94;5110194;28;20027;-63
2023/08/27 06:10:54;;;;;;;7.68;5.60;;;;;;;14.70;100.00;100742.72;5075732;28;20428;-62
2023/08/27 06:13:19;;;;;;;8.25;4.65;;;;;;;14.70;100.00;100734.69;5084559;28;20028;-63
2023/08/27 06:15:45;;;;;;;5.22;4.75;;;;;;;14.75;100.00;100742.34;5093277;28;20481;-62
2023/08/27 06:18:10;;;;;;;8.05;5.50;;;;;;;14.74;100.00;100746.03;5110753;28;20035;-62
2023/08/27 06:20:36;;;;;;;5.63;5.07;;;;;;;14.74;100.00;100738.00;5097382;28;20034;-63
2023/08/27 06:23:04;;;;;;;7.30;5.30;;;;;;;14.84;100.00;100741.59;5110532;28;20488;-62
2023/08/27 06:25:32;;;;;;;5.60;5.00;;;;;;;14.86;100.00;100736.97;5111688;28;20023;-62
2023/08/27 06:27:58;;;;;;;5.47;5.03;;;;;;;14.83;100.00;100723.84;5094060;28;20027;-62
2023/08/27 06:30:23;;;;;;;6.10;5.50;;;;;;;14.87;100.00;100735.13;5119658;28;20016;-62
2023/08/27 06:32:49;;;;;;;7.07;4.95;;;;;;;14.83;100.00;100725.66;5111223;28;20019;-62
2023/08/27 06:35:14;;;;;;;9.73;5.15;;;;;;;14.87;100.00;100727.09;5111081;28;20107;-62
2023/08/27 06:37:40;;;;;;;7.10;5.10;;;;;;;14.97;100.00;100728.03;5111847;28;20032;-63
2023/08/27 06:40:08;;;;;;;5.82;5.32;;;;;;;14.95;100.00;100728.16;5094990;28;20239;-63
2023/08/27 06:42:36;;;;;;;7.22;5.18;;;;;;;14.97;100.00;100736.94;5096092;28;20080;-63
2023/08/27 06:45:04;;;;;;;7.18;5.07;;;;;;;14.98;100.00;100727.06;5111981;28;20541;-63
2023/08/27 06:47:30;;;;;;;7.05;5.25;;;;;;;15.13;100.00;100731.13;5097782;27;20023;-62
2023/08/27 06:49:58;;;;;;;7.80;5.22;;;;;;;15.15;100.00;100731.84;5114248;27;20026;-62
2023/08/27 06:52:24;;;;;;;6.60;4.97;;;;;;;15.28;100.00;100733.50;5115060;28;20023;-63
2023/08/27 06:54:49;;;;;;;5.30;4.80;;;;;;;15.37;100.00;100744.28;5114980;28;20027;-62
2023/08/27 06:57:17;;;;;;;7.93;5.30;;;;;;;15.47;100.00;100743.50;5100000;27;20035;-62
2023/08/27 06:59:42;;;;;;;6.32;5.50;;;;;;;15.54;100.00;100745.53;5116559;27;20030;-62
2023/08/27 07:02:08;;;;;;;6.03;5.43;;;;;;;15.58;100.00;100741.59;5134588;27;20444;-63
2023/08/27 07:04:33;;;;;;;8.55;5.65;;;;;;;15.84;100.00;100741.22;5134776;27;20019;-63
2023/08/27 07:06:58;;;;;;;8.52;6.32;;;;;;;15.90;100.00;100751.41;5135272;27;20130;-63
2023/08/27 07:09:25;;;;;;;6.63;5.45;;;;;;;15.94;100.00;100747.47;5116139;27;20364;-63
2023/08/27 07:11:51;;;;;;;7.00;5.65;;;;;;;15.99;100.00;100749.75;5096310;28;20110;-63
2023/08/27 07:14:16;;;;;;;5.80;5.20;;;;;;;16.07;100.00;100758.81;5111529;28;20131;-63
2023/08/27 07:16:42;;;;;;;7.13;4.78;;;;;;;16.10;100.00;100755.88;5114941;27;20023;-63
2023/08/27 07:19:07;;;;;;;6.35;5.13;;;;;;;16.15;100.00;100749.25;5115279;27;20020;-62
2023/08/27 07:21:33;;;;;;;7.45;5.35;;;;;;;16.22;100.00;100750.41;5117928;27;20024;-63
2023/08/27 07:23:58;;;;;;;6.07;5.47;;;;;;;16.27;100.00;100751.72;5096187;28;20033;-62
2023/08/27 07:26:25;;;;;;;8.32;4.88;;;;;;;16.38;100.00;100755.25;5114621;28;20029;-62
2023/08/27 07:28:50;;;;;;;8.57;5.38;;;;;;;16.33;100.00;100747.63;5114831;27;20023;-62
2023/08/27 07:31:16;;;;;;;8.50;4.97;;;;;;;16.43;100.00;100747.66;5096037;28;20023;-62
2023/08/27 07:33:41;;;;;;;7.50;5.55;;;;;;;16.48;100.00;100748.94;5114284;28;20102;-62
2023/08/27 07:36:06;;;;;;;9.30;5.80;;;;;;;16.65;100.00;100751.94;5114550;27;20122;-63
2023/08/27 07:38:38;;;;;;;8.43;5.63;;;;;;;16.69;100.00;100748.84;5109294;27;20035;-63
2023/08/27 07:41:03;;;;;;;6.95;5.10;;;;;;;16.63;100.00;100754.78;5112902;28;20034;-62
2023/08/27 07:43:30;;;;;;;10.18;5.57;;;;;;;16.71;100.00;100759.47;5110649;28;20028;-62
2023/08/27 07:45:56;;;;;;;9.48;5.55;;;;;;;16.66;100.00;100770.59;5112538;28;20448;-63
2023/08/27 07:48:21;;;;;;;7.47;5.78;;;;;;;16.43;99.15;100761.91;5092085;28;20012;-62
2023/08/27 07:50:50;;;;;;;8.75;6.32;;;;;;;16.46;99.86;100758.97;5092648;28;20120;-62
2023/08/27 07:53:15;;;;;;;9.67;5.53;;;;;;;16.60;100.00;100755.03;5101930;28;20110;-62
2023/08/27 07:55:41;;;;;;;8.20;6.13;;;;;;;16.73;100.00;100749.41;5091421;28;20127;-62
2023/08/27 07:58:07;;;;;;;6.93;5.57;;;;;;;16.93;100.00;100764.59;5108010;27;20036;-62
2023/08/27 08:00:35;;;;;;;8.93;6.47;;;;;;;16.86;99.70;100754.56;5108253;28;20094;-62
2023/08/27 08:03:00;;;;;;;8.45;6.40;;;;;;;16.77;100.00;100754.41;5094400;28;20051;-62
2023/08/27 08:05:26;;;;;;;10.15;6.63;;;;;;;16.68;100.00;100744.47;5112868;28;20484;-62
2023/08/27 08:07:52;;;;;;;8.75;5.45;;;;;;;16.58;99.27;100733.69;5124235;27;20084;-62
2023/08/27 08:10:18;;;;;;;8.18;6.07;;;;;;;16.63;99.27;100744.03;5132852;27;20030;-62
2023/08/27 08:12:43;;;;;;;12.00;5.60;;;;;;;16.51;97.70;100748.66;5097042;28;20020;-61
2023/08/27 08:15:09;;;;;;;7.25;5.32;;;;;;;16.51;97.83;100750.50;5088920;28;20027;-61
2023/08/27 08:17:35;;;;;;;8.55;5.82;;;;;;;16.61;97.47;100748.69;5118530;27;20063;-62
2023/08/27 08:20:01;;;;;;;11.77;5.65;;;;;;;16.84;96.90;100741.25;5112856;28;20066;-62
2023/08/27 08:22:26;;;;;;;7.75;5.53;;;;;;;17.12;94.70;100762.91;5094547;28;20023;-62
2023/08/27 08:24:52;;;;;;;7.25;5.07;;;;;;;17.30;95.34;100752.31;5078115;28;20030;-62
2023/08/27 08:27:17;;;;;;;9.43;6.00;;;;;;;17.66;96.36;100746.16;5077838;28;20027;-62
2023/08/27 08:29:43;;;;;;;6.43;5.40;;;;;;;17.87;93.62;100763.97;5074597;28;20024;-62
2023/08/27 08:32:09;;;;;;;8.25;5.25;;;;;;;17.91;89.29;100751.91;5093177;28;20458;-62
2023/08/27 08:34:34;;;;;;;9.85;5.38;;;;;;;18.15;88.75;100756.81;5074625;28;20024;-62
2023/08/27 08:37:01;;;;;;;6.88;4.78;;;;;;;18.28;88.47;100757.28;5123962;27;20642;-62
2023/08/27 08:39:29;;;;;;;7.45;5.05;;;;;;;18.50;88.91;100760.56;5111736;27;20055;-62
2023/08/27 08:42:14;;;;;;;6.80;5.13;;;;;;;18.75;90.04;100759.91;5095774;28;20019;-62
2023/08/27 08:44:54;;;;;;;5.40;4.05;;;;;;;18.72;87.40;100767.41;5106085;28;20089;-62
2023/08/27 08:47:23;;;;;;;9.15;4.85;;;;;;;18.80;85.03;100749.50;5110744;27;20031;-63
2023/08/27 08:49:53;;;;;;;6.35;3.72;;;;;;;18.65;83.85;100750.13;5111069;28;20076;-69
2023/08/27 08:52:25;;;;;;;10.02;3.75;;;;;;;18.52;81.62;100759.44;5092719;28;20034;-62
2023/08/27 08:54:54;;;;;;;8.35;4.28;;;;;;;18.59;81.26;100765.94;5093514;28;20023;-62
2023/08/27 08:57:22;;;;;;;7.88;4.35;;;;;;;18.67;82.26;100748.16;5105309;27;20028;-62
2023/08/27 08:59:48;;;;;;;6.43;3.53;;;;;;;18.57;82.29;100754.44;5106468;28;20161;-61
2023/08/27 09:02:14;;;;;;;6.20;3.75;;;;;;;18.87;81.23;100757.00;5112599;28;20058;-62
2023/08/27 09:04:43;;;;;;;6.85;3.38;;;;;;;19.04;77.71;100757.00;5100081;28;20024;-61
2023/08/27 09:07:09;;;;;;;5.93;3.30;;;;;;;18.95;77.45;100749.84;5106249;27;20080;-62
2023/08/27 09:09:37;;;;;;;7.10;3.10;;;;;;;18.72;77.28;100754.78;5109318;28;20035;-61
2023/08/27 09:12:04;;;;;;;5.65;3.30;;;;;;;18.53;75.95;100741.41;5094118;28;20031;-61
2023/08/27 09:14:31;;;;;;;5.18;3.20;;;;;;;18.60;77.41;100754.16;5112252;28;20102;-62
2023/08/27 09:16:57;;;;;;;4.60;2.92;;;;;;;18.39;75.25;100749.03;5107623;27;20015;-62
2023/08/27 09:19:22;;;;;;;5.88;3.85;;;;;;;18.46;75.84;100746.56;5110114;28;20031;-61
2023/08/27 09:21:52;;;;;;;5.95;3.58;;;;;;;18.49;80.00;100732.81;5111477;28;20027;-62
2023/08/27 09:24:17;;;;;;;8.48;3.90;;;;;;;18.52;77.88;100739.72;5073604;28;20032;-62
2023/08/27 09:26:43;;;;;;;6.40;3.45;;;;;;;18.38;77.21;100727.63;5099069;28;20116;-61
2023/08/27 09:29:08;;;;;;;9.77;3.90;;;;;;;18.70;76.41;100737.91;5089636;28;20019;-62
2023/08/27 09:31:41;;;;;;;6.40;3.45;;;;;;;18.64;75.32;100740.38;5112321;28;20020;-62
2023/08/27 09:34:08;;;;;;;8.98;3.50;;;;;;;18.37;73.74;100728.63;5099848;28;20398;-62
2023/08/27 09:36:36;;;;;;;6.65;3.65;;;;;;;18.14;79.04;100725.47;5120230;27;20384;-62
2023/08/27 09:39:09;;;;;;;7.53;3.65;;;;;;;18.13;78.43;100723.78;5132450;27;20051;-62
2023/08/27 09:41:43;;;;;;;5.22;3.25;;;;;;;18.00;80.36;100723.28;5095880;28;20032;-61
2023/08/27 09:44:09;;;;;;;7.85;3.50;;;;;;;18.26;78.20;100716.19;5113940;28;20501;-61
2023/08/27 09:46:36;;;;;;;7.40;3.53;;;;;;;18.54;75.52;100716.19;5104074;28;20498;-61
2023/08/27 09:49:06;;;;;;;8.43;3.38;;;;;;;18.73;78.18;100718.78;5126350;28;20089;-61
2023/08/27 09:51:38;;;;;;;9.00;4.00;;;;;;;18.83;76.01;100713.34;5111082;28;20024;-62
2023/08/27 09:54:17;;;;;;;8.02;3.15;;;;;;;19.19;77.68;100716.00;5108675;28;20028;-62
2023/08/27 09:56:48;;;;;;;5.47;3.60;;;;;;;19.03;74.28;100716.69;5129561;28;20050;-62
2023/08/27 09:59:16;;;;;;;4.05;2.95;;;;;;;19.04;73.88;100719.25;5101573;28;20026;-62
2023/08/27 10:01:46;;;;;;;7.72;2.97;;;;;;;19.28;73.96;100718.59;5093681;28;20024;-61
2023/08/27 10:04:11;;;;;;;5.72;3.20;;;;;;;19.59;72.26;100717.28;5093171;28;20050;-62
2023/08/27 10:06:37;;;;;;;8.48;3.22;;;;;;;19.74;71.15;100721.16;5112973;28;20498;-62
2023/08/27 10:09:05;;;;;;;6.78;3.10;;;;;;;19.89;68.26;100708.75;5097904;28;20031;-61
2023/08/27 10:11:35;;;;;;;6.22;2.60;;;;;;;20.06;69.61;100716.91;5096872;28;20047;-62
2023/08/27 10:14:03;;;;;;;7.25;2.90;;;;;;;19.80;69.09;100716.97;5111246;28;20540;-61
2023/08/27 10:16:30;;;;;;;6.60;2.65;;;;;;;19.77;71.00;100709.19;5105383;28;20020;-61
2023/08/27 10:18:56;;;;;;;4.95;2.60;;;;;;;19.58;68.77;100727.25;5097542;28;20038;-62
2023/08/27 10:21:24;;;;;;;6.30;2.70;;;;;;;19.51;70.51;100718.09;5097081;28;20096;-62
2023/08/27 10:23:50;;;;;;;6.13;2.90;;;;;;;19.47;72.01;100709.50;5115420;28;20081;-61
2023/08/27 10:26:16;;;;;;;5.25;3.03;;;;;;;19.59;70.80;100711.91;5116856;27;20028;-62
2023/08/27 10:28:43;;;;;;;4.43;3.03;;;;;;;20.15;68.74;100710.56;5115646;28;20027;-62
2023/08/27 10:31:09;;;;;;;6.10;3.05;;;;;;;20.63;68.41;100703.66;5096621;28;20020;-62
2023/08/27 10:33:34;;;;;;;5.15;2.33;;;;;;;21.09;65.71;100712.16;5097416;28;20023;-62
2023/08/27 10:36:05;;;;;;;4.65;2.20;;;;;;;21.08;68.33;100726.69;5125199;27;20030;-62
2023/08/27 10:38:35;;;;;;;6.03;2.20;;;;;;;20.55;63.79;100717.13;5114291;27;20538;-62
2023/08/27 10:41:02;;;;;;;4.50;1.80;;;;;;;20.12;63.03;100721.69;5113579;27;20238;-62
2023/08/27 10:43:32;;;;;;;3.83;2.40;;;;;;;20.04;66.04;100722.50;5115529;28;20097;-62
2023/08/27 10:46:15;;;;;;;6.35;2.60;;;;;;;19.93;70.33;100720.91;5113597;28;20024;-62
2023/08/27 10:48:47;;;;;;;4.82;2.25;;;;;;;20.25;67.11;100723.94;5113728;27;20061;-62
2023/08/27 10:51:14;;;;;;;3.88;2.15;;;;;;;20.14;68.39;100731.31;5109325;27;20096;-62
2023/08/27 10:53:49;;;;;;;3.20;2.33;;;;;;;19.96;64.42;100727.84;5117195;27;20024;-62
2023/08/27 10:56:32;;;;;;;5.13;2.28;;;;;;;20.04;66.77;100730.59;5104687;28;20050;-62
2023/08/27 10:59:27;;;;;;;4.70;2.15;;;;;;;19.99;67.68;100724.81;5115516;27;20034;-62
2023/08/27 11:01:53;;;;;;;6.53;2.72;;;;;;;19.99;66.83;100719.44;5115641;27;20019;-62
2023/08/27 11:04:18;;;;;;;5.32;2.70;;;;;;;20.20;66.76;100719.00;5114426;28;20139;-62
2023/08/27 11:06:46;;;;;;;5.28;2.40;;;;;;;20.37;65.43;100715.38;5114500;28;20494;-62
2023/08/27 11:09:11;;;;;;;4.75;2.28;;;;;;;20.90;65.01;100718.72;5114941;28;20103;-62
2023/08/27 11:11:40;;;;;;;2.00;1.52;;;;;;;20.89;60.42;100729.72;5114989;28;20118;-62
2023/08/27 11:14:08;;;;;;;3.40;1.88;;;;;;;20.62;60.53;100724.44;5096247;28;20436;-62
2023/08/27 11:16:43;;;;;;;2.30;1.73;;;;;;;20.40;62.61;100728.53;5115299;27;20023;-63
2023/08/27 11:19:11;;;;;;;3.25;1.75;;;;;;;20.24;62.20;100727.66;5095977;28;20379;-62